createdAt,value
2018-01-25T00:00:37.097Z,1.60
2018-01-25T00:01:42.614Z,1.80
2018-01-25T00:02:48.116Z,1.70
2018-01-25T00:03:53.632Z,1.50
2018-01-25T00:04:59.145Z,1.70
2018-01-25T00:06:04.661Z,1.60
2018-01-25T00:07:10.166Z,1.60
2018-01-25T00:08:15.716Z,1.70
2018-01-25T00:09:21.205Z,1.50
2018-01-25T00:10:26.706Z,1.50
2018-01-25T00:11:32.220Z,1.50
2018-01-25T00:12:37.735Z,1.40
2018-01-25T00:13:43.248Z,1.80
2018-01-25T00:14:48.761Z,1.50
2018-01-25T00:15:54.275Z,1.70
2018-01-25T00:16:59.784Z,1.60
2018-01-25T00:18:05.299Z,1.60
2018-01-25T00:19:10.804Z,1.60
2018-01-25T00:20:16.318Z,1.70
2018-01-25T00:21:21.833Z,1.50
2018-01-25T00:22:27.347Z,1.50
2018-01-25T00:23:32.864Z,1.70
2018-01-25T00:24:38.370Z,1.70
2018-01-25T00:25:43.889Z,1.50
2018-01-25T00:26:49.403Z,1.70
2018-01-25T00:27:54.922Z,1.70
2018-01-25T00:29:00.441Z,1.70
2018-01-25T00:30:05.934Z,1.60
2018-01-25T00:31:11.458Z,1.90
2018-01-25T00:32:16.961Z,1.60
2018-01-25T00:33:22.480Z,1.70
2018-01-25T00:34:28.000Z,1.70
2018-01-25T00:35:33.502Z,1.70
2018-01-25T00:36:39.009Z,1.90
2018-01-25T00:37:44.522Z,1.70
2018-01-25T00:38:50.038Z,1.70
2018-01-25T00:39:55.558Z,1.80
2018-01-25T00:41:01.069Z,1.90
2018-01-25T00:42:06.589Z,1.80
2018-01-25T00:43:12.222Z,1.80
2018-01-25T00:44:17.615Z,1.80
2018-01-25T00:45:23.113Z,1.60
2018-01-25T00:46:28.626Z,1.90
2018-01-25T00:47:34.145Z,1.70
2018-01-25T00:48:39.701Z,1.60
2018-01-25T00:49:45.164Z,1.90
2018-01-25T00:50:50.681Z,1.80
2018-01-25T00:51:56.194Z,1.80
2018-01-25T00:53:01.713Z,1.80
2018-01-25T00:54:07.213Z,1.70
2018-01-25T00:55:12.735Z,1.80
2018-01-25T00:56:18.245Z,1.80
2018-01-25T00:57:23.761Z,2.00
2018-01-25T00:58:29.267Z,1.90
2018-01-25T00:59:34.780Z,1.70
2018-01-25T01:00:40.288Z,1.70
2018-01-25T01:01:45.802Z,2.10
2018-01-25T01:02:51.316Z,1.70
2018-01-25T01:03:56.836Z,1.80
2018-01-25T01:05:02.337Z,1.80
2018-01-25T01:06:07.864Z,1.70
2018-01-25T01:07:13.364Z,1.80
2018-01-25T01:08:18.882Z,1.90
2018-01-25T01:09:24.386Z,1.80
2018-01-25T01:10:29.903Z,2.00
2018-01-25T01:11:35.412Z,1.80
2018-01-25T01:12:40.921Z,1.90
2018-01-25T01:13:46.434Z,2.00
2018-01-25T01:14:51.948Z,1.50
2018-01-25T01:15:57.462Z,1.50
2018-01-25T01:17:02.975Z,1.40
2018-01-25T01:18:08.502Z,1.40
2018-01-25T01:19:14.007Z,1.60
2018-01-25T01:20:19.512Z,1.30
2018-01-25T01:21:25.035Z,1.70
2018-01-25T01:22:30.535Z,1.60
2018-01-25T01:23:36.048Z,2.10
2018-01-25T01:24:41.558Z,1.90
2018-01-25T01:25:47.079Z,2.40
2018-01-25T01:26:52.628Z,2.30
2018-01-25T01:27:58.099Z,2.30
2018-01-25T01:29:03.665Z,2.50
2018-01-25T01:30:09.122Z,2.60
2018-01-25T01:31:14.634Z,2.70
2018-01-25T01:32:20.145Z,2.80
2018-01-25T01:33:25.660Z,2.80
2018-01-25T01:34:31.173Z,2.80
2018-01-25T01:35:36.684Z,2.50
2018-01-25T01:36:42.203Z,2.50
2018-01-25T01:37:47.725Z,2.20
2018-01-25T01:38:53.223Z,2.20
2018-01-25T01:39:58.735Z,2.20
2018-01-25T01:41:04.241Z,1.90
2018-01-25T01:42:09.762Z,1.90
2018-01-25T01:43:15.271Z,1.70
2018-01-25T01:44:20.794Z,1.70
2018-01-25T01:45:26.290Z,1.80
2018-01-25T01:46:31.801Z,1.70
2018-01-25T01:47:37.323Z,1.50
2018-01-25T01:48:42.845Z,1.50
2018-01-25T01:49:48.338Z,1.30
2018-01-25T01:50:53.853Z,0.80
2018-01-25T01:51:59.365Z,1.00
2018-01-25T01:53:04.886Z,0.80
2018-01-25T01:54:10.391Z,1.10
2018-01-25T01:55:15.902Z,0.70
2018-01-25T01:56:21.416Z,1.20
2018-01-25T01:57:26.936Z,1.00
2018-01-25T01:58:32.441Z,0.70
2018-01-25T01:59:38.036Z,0.80
2018-01-25T02:00:43.458Z,0.90
2018-01-25T02:01:49.083Z,0.70
2018-01-25T02:02:54.486Z,0.60
2018-01-25T02:04:00.036Z,1.00
2018-01-25T02:05:05.531Z,1.00
2018-01-25T02:06:11.019Z,1.10
2018-01-25T02:07:16.532Z,0.90
2018-01-25T02:08:22.046Z,1.00
2018-01-25T02:09:27.554Z,0.90
2018-01-25T02:10:33.065Z,1.10
2018-01-25T02:11:38.573Z,0.80
2018-01-25T02:12:44.093Z,0.80
2018-01-25T02:13:49.598Z,0.70
2018-01-25T02:14:55.110Z,1.20
2018-01-25T02:16:00.623Z,0.90
2018-01-25T02:17:06.138Z,0.80
2018-01-25T02:18:11.651Z,0.70
2018-01-25T02:19:17.164Z,0.70
2018-01-25T02:20:22.682Z,0.80
2018-01-25T02:21:28.191Z,0.70
2018-01-25T02:22:33.695Z,0.80
2018-01-25T02:23:39.209Z,0.80
2018-01-25T02:24:44.721Z,1.00
2018-01-25T02:25:50.246Z,0.70
2018-01-25T02:26:55.737Z,0.60
2018-01-25T02:28:01.251Z,0.80
2018-01-25T02:29:06.768Z,0.70
2018-01-25T02:30:12.274Z,0.70
2018-01-25T02:31:17.786Z,0.70
2018-01-25T02:32:23.311Z,0.70
2018-01-25T02:33:28.811Z,0.80
2018-01-25T02:34:34.324Z,0.70
2018-01-25T02:35:39.833Z,0.70
2018-01-25T02:36:45.349Z,1.00
2018-01-25T02:37:50.860Z,1.00
2018-01-25T02:38:56.377Z,1.30
2018-01-25T02:40:01.890Z,1.10
2018-01-25T02:41:07.388Z,1.00
2018-01-25T02:42:12.985Z,1.20
2018-01-25T02:43:18.414Z,1.00
2018-01-25T02:44:24.000Z,0.90
2018-01-25T02:45:29.557Z,1.00
2018-01-25T02:46:34.950Z,1.40
2018-01-25T02:47:40.470Z,1.50
2018-01-25T02:48:45.976Z,1.30
2018-01-25T02:49:51.493Z,1.20
2018-01-25T02:50:56.999Z,1.50
2018-01-25T02:52:02.516Z,1.60
2018-01-25T02:53:08.025Z,1.40
2018-01-25T02:54:13.530Z,1.30
2018-01-25T02:55:19.055Z,1.40
2018-01-25T02:56:24.557Z,1.70
2018-01-25T02:57:30.065Z,1.40
2018-01-25T02:58:35.577Z,1.50
2018-01-25T02:59:41.092Z,1.50
2018-01-25T03:00:46.600Z,1.80
2018-01-25T03:01:52.112Z,1.60
2018-01-25T03:02:57.632Z,1.70
2018-01-25T03:04:03.132Z,1.50
2018-01-25T03:05:08.649Z,1.30
2018-01-25T03:06:14.155Z,1.70
2018-01-25T03:07:19.666Z,1.70
2018-01-25T03:08:25.180Z,1.50
2018-01-25T03:09:30.690Z,1.40
2018-01-25T03:10:36.207Z,1.40
2018-01-25T03:11:41.716Z,1.60
2018-01-25T03:12:47.222Z,1.80
2018-01-25T03:13:52.733Z,1.90
2018-01-25T03:14:58.244Z,1.50
2018-01-25T03:16:03.763Z,1.80
2018-01-25T03:17:09.269Z,2.10
2018-01-25T03:18:14.782Z,1.40
2018-01-25T03:19:20.292Z,1.90
2018-01-25T03:20:25.811Z,1.80
2018-01-25T03:21:31.320Z,1.90
2018-01-25T03:22:36.924Z,1.90
2018-01-25T03:23:42.332Z,1.50
2018-01-25T03:24:47.898Z,1.70
2018-01-25T03:25:53.369Z,1.50
2018-01-25T03:26:58.879Z,1.70
2018-01-25T03:28:04.382Z,1.60
2018-01-25T03:29:09.902Z,2.10
2018-01-25T03:30:15.402Z,1.80
2018-01-25T03:31:20.908Z,1.40
2018-01-25T03:32:26.419Z,1.70
2018-01-25T03:33:31.935Z,1.40
2018-01-25T03:34:37.446Z,1.70
2018-01-25T03:35:42.964Z,1.10
2018-01-25T03:36:48.470Z,1.30
2018-01-25T03:37:53.979Z,1.20
2018-01-25T03:38:59.490Z,1.20
2018-01-25T03:40:04.995Z,1.30
2018-01-25T03:41:10.509Z,1.10
2018-01-25T03:42:16.025Z,1.30
2018-01-25T03:43:21.536Z,1.10
2018-01-25T03:44:27.038Z,1.10
2018-01-25T03:45:32.552Z,1.20
2018-01-25T03:46:38.062Z,1.10
2018-01-25T03:47:43.583Z,1.20
2018-01-25T03:48:49.091Z,1.10
2018-01-25T03:49:54.596Z,1.20
2018-01-25T03:51:00.110Z,1.30
2018-01-25T03:52:05.623Z,1.30
2018-01-25T03:53:11.133Z,1.40
2018-01-25T03:54:16.639Z,1.50
2018-01-25T03:55:22.153Z,1.50
2018-01-25T03:56:27.662Z,1.30
2018-01-25T03:57:33.172Z,1.40
2018-01-25T03:58:38.695Z,1.50
2018-01-25T03:59:44.192Z,1.40
2018-01-25T04:00:49.711Z,1.80
2018-01-25T04:01:55.223Z,1.50
2018-01-25T04:03:00.748Z,1.70
2018-01-25T04:04:06.242Z,1.50
2018-01-25T04:05:11.757Z,1.50
2018-01-25T04:06:17.258Z,1.30
2018-01-25T04:07:22.771Z,1.70
2018-01-25T04:08:28.283Z,1.50
2018-01-25T04:09:33.792Z,1.80
2018-01-25T04:10:39.298Z,1.70
2018-01-25T04:11:44.816Z,1.60
2018-01-25T04:12:50.324Z,1.40
2018-01-25T04:13:55.836Z,1.60
2018-01-25T04:15:01.350Z,1.50
2018-01-25T04:16:06.857Z,1.30
2018-01-25T04:17:12.366Z,1.20
2018-01-25T04:18:17.881Z,1.40
2018-01-25T04:19:23.389Z,1.30
2018-01-25T04:20:28.901Z,1.10
2018-01-25T04:21:34.409Z,1.40
2018-01-25T04:22:39.930Z,1.30
2018-01-25T04:23:45.431Z,1.20
2018-01-25T04:24:50.945Z,1.20
2018-01-25T04:25:56.451Z,1.60
2018-01-25T04:27:01.965Z,1.60
2018-01-25T04:28:07.472Z,1.20
2018-01-25T04:29:12.992Z,1.30
2018-01-25T04:30:18.506Z,1.60
2018-01-25T04:31:24.008Z,1.50
2018-01-25T04:32:29.521Z,1.60
2018-01-25T04:33:35.031Z,1.40
2018-01-25T04:34:40.543Z,1.60
2018-01-25T04:35:46.053Z,1.50
2018-01-25T04:36:51.718Z,1.50
2018-01-25T04:37:57.066Z,1.50
2018-01-25T04:39:02.587Z,1.20
2018-01-25T04:40:08.094Z,1.50
2018-01-25T04:41:13.640Z,2.00
2018-01-25T04:42:19.114Z,1.30
2018-01-25T04:43:24.631Z,1.40
2018-01-25T04:44:30.131Z,1.30
2018-01-25T04:45:35.643Z,1.30
2018-01-25T04:46:41.151Z,1.60
2018-01-25T04:47:46.669Z,1.50
2018-01-25T04:48:52.181Z,1.30
2018-01-25T04:49:57.684Z,1.10
2018-01-25T04:51:03.200Z,1.40
2018-01-25T04:52:08.710Z,1.20
2018-01-25T04:53:14.214Z,1.40
2018-01-25T04:54:19.727Z,1.40
2018-01-25T04:55:25.242Z,1.30
2018-01-25T04:56:30.749Z,1.40
2018-01-25T04:57:36.262Z,1.40
2018-01-25T04:58:41.774Z,1.40
2018-01-25T04:59:47.281Z,1.60
2018-01-25T05:00:52.802Z,1.30
2018-01-25T05:01:58.307Z,1.50
2018-01-25T05:03:03.809Z,1.30
2018-01-25T05:04:09.328Z,1.30
2018-01-25T05:05:14.843Z,1.30
2018-01-25T05:06:20.341Z,1.40
2018-01-25T05:07:25.858Z,1.50
2018-01-25T05:08:31.378Z,1.60
2018-01-25T05:09:36.878Z,1.50
2018-01-25T05:10:42.394Z,1.50
2018-01-25T05:11:47.902Z,1.50
2018-01-25T05:12:53.409Z,1.70
2018-01-25T05:13:58.921Z,1.70
2018-01-25T05:15:04.428Z,1.40
2018-01-25T05:16:09.940Z,1.60
2018-01-25T05:17:15.458Z,1.50
2018-01-25T05:18:21.824Z,1.60
2018-01-25T05:19:26.478Z,1.80
2018-01-25T05:20:31.982Z,1.60
2018-01-25T05:21:37.561Z,1.60
2018-01-25T05:22:43.001Z,1.70
2018-01-25T05:23:48.514Z,1.80
2018-01-25T05:24:54.034Z,1.80
2018-01-25T05:25:59.535Z,1.80
2018-01-25T05:27:05.048Z,1.80
2018-01-25T05:28:10.560Z,1.80
2018-01-25T05:29:16.071Z,1.90
2018-01-25T05:30:21.581Z,2.00
2018-01-25T05:31:27.089Z,2.20
2018-01-25T05:32:32.609Z,2.00
2018-01-25T05:33:38.113Z,1.70
2018-01-25T05:34:43.625Z,2.10
2018-01-25T05:35:49.134Z,2.00
2018-01-25T05:36:54.644Z,2.10
2018-01-25T05:38:00.156Z,2.00
2018-01-25T05:39:05.663Z,1.90
2018-01-25T05:40:11.172Z,1.90
2018-01-25T05:41:16.689Z,2.10
2018-01-25T05:42:22.193Z,2.20
2018-01-25T05:43:27.702Z,2.40
2018-01-25T05:44:33.210Z,2.00
2018-01-25T05:45:38.723Z,2.00
2018-01-25T05:46:44.247Z,1.70
2018-01-25T05:47:49.750Z,2.00
2018-01-25T05:48:55.261Z,1.80
2018-01-25T05:50:00.772Z,2.20
2018-01-25T05:51:06.286Z,1.70
2018-01-25T05:52:11.799Z,1.90
2018-01-25T05:53:17.305Z,1.70
2018-01-25T05:54:22.807Z,1.90
2018-01-25T05:55:28.321Z,1.60
2018-01-25T05:56:33.830Z,1.60
2018-01-25T05:57:39.351Z,1.60
2018-01-25T05:58:44.856Z,1.70
2018-01-25T05:59:50.385Z,1.80
2018-01-25T06:00:55.874Z,1.80
2018-01-25T06:02:01.392Z,1.80
2018-01-25T06:03:06.934Z,1.70
2018-01-25T06:04:12.405Z,1.80
2018-01-25T06:05:17.923Z,1.90
2018-01-25T06:06:23.431Z,1.70
2018-01-25T06:07:28.943Z,1.80
2018-01-25T06:08:34.452Z,1.80
2018-01-25T06:09:39.962Z,1.70
2018-01-25T06:10:45.470Z,1.90
2018-01-25T06:11:50.986Z,1.80
2018-01-25T06:12:56.493Z,2.00
2018-01-25T06:14:02.001Z,2.00
2018-01-25T06:15:07.512Z,1.80
2018-01-25T06:16:13.035Z,2.10
2018-01-25T06:17:18.530Z,1.80
2018-01-25T06:18:24.052Z,1.70
2018-01-25T06:19:29.553Z,1.70
2018-01-25T06:20:35.061Z,1.50
2018-01-25T06:21:40.587Z,1.70
2018-01-25T06:22:46.091Z,2.00
2018-01-25T06:23:51.602Z,2.00
2018-01-25T06:24:57.108Z,1.80
2018-01-25T06:26:02.617Z,2.00
2018-01-25T06:27:08.128Z,1.80
2018-01-25T06:28:13.641Z,1.70
2018-01-25T06:29:19.155Z,1.90
2018-01-25T06:30:24.654Z,1.80
2018-01-25T06:31:30.168Z,2.00
2018-01-25T06:32:35.732Z,2.00
2018-01-25T06:33:41.194Z,1.80
2018-01-25T06:34:46.704Z,1.80
2018-01-25T06:35:52.334Z,1.70
2018-01-25T06:36:57.732Z,1.90
2018-01-25T06:38:03.250Z,1.70
2018-01-25T06:39:08.746Z,2.00
2018-01-25T06:40:14.291Z,2.30
2018-01-25T06:41:19.762Z,2.00
2018-01-25T06:42:25.276Z,2.10
2018-01-25T06:43:30.786Z,1.70
2018-01-25T06:44:36.292Z,1.80
2018-01-25T06:45:41.804Z,2.10
2018-01-25T06:46:47.314Z,1.80
2018-01-25T06:47:52.881Z,2.20
2018-01-25T06:48:58.351Z,1.80
2018-01-25T06:50:03.849Z,1.90
2018-01-25T06:51:09.362Z,2.00
2018-01-25T06:52:14.869Z,2.10
2018-01-25T06:53:20.381Z,2.60
2018-01-25T06:54:25.892Z,2.40
2018-01-25T06:55:31.398Z,2.30
2018-01-25T06:56:36.912Z,2.30
2018-01-25T06:57:42.420Z,2.20
2018-01-25T06:58:47.936Z,2.40
2018-01-25T06:59:53.444Z,2.10
2018-01-25T07:00:58.953Z,2.20
2018-01-25T07:02:04.472Z,2.00
2018-01-25T07:03:09.982Z,2.20
2018-01-25T07:04:15.486Z,2.50
2018-01-25T07:05:21.009Z,2.00
2018-01-25T07:06:26.509Z,2.30
2018-01-25T07:07:32.015Z,2.40
2018-01-25T07:08:37.528Z,2.30
2018-01-25T07:09:43.044Z,2.30
2018-01-25T07:10:48.545Z,2.30
2018-01-25T07:11:54.058Z,2.40
2018-01-25T07:12:59.720Z,2.10
2018-01-25T07:14:05.082Z,2.50
2018-01-25T07:15:10.587Z,2.50
2018-01-25T07:16:16.152Z,2.50
2018-01-25T07:17:21.611Z,2.20
2018-01-25T07:18:27.130Z,2.80
2018-01-25T07:19:32.630Z,2.20
2018-01-25T07:20:38.146Z,2.50
2018-01-25T07:21:43.701Z,2.70
2018-01-25T07:22:49.162Z,2.90
2018-01-25T07:23:54.672Z,2.40
2018-01-25T07:25:00.184Z,3.20
2018-01-25T07:26:05.693Z,2.40
2018-01-25T07:27:11.207Z,2.80
2018-01-25T07:28:16.717Z,2.50
2018-01-25T07:29:22.230Z,2.60
2018-01-25T07:30:27.733Z,2.40
2018-01-25T07:31:33.247Z,2.30
2018-01-25T07:32:38.758Z,2.30
2018-01-25T07:33:44.277Z,2.40
2018-01-25T07:34:49.787Z,2.30
2018-01-25T07:35:55.297Z,2.60
2018-01-25T07:37:00.816Z,2.80
2018-01-25T07:38:06.316Z,2.90
2018-01-25T07:39:11.829Z,2.30
2018-01-25T07:40:17.329Z,2.70
2018-01-25T07:41:22.845Z,2.80
2018-01-25T07:42:28.352Z,3.20
2018-01-25T07:43:33.869Z,2.70
2018-01-25T07:44:39.376Z,2.40
2018-01-25T07:45:44.893Z,2.80
2018-01-25T07:46:50.393Z,2.40
2018-01-25T07:47:55.924Z,2.90
2018-01-25T07:49:01.424Z,2.80
2018-01-25T07:50:06.931Z,2.90
2018-01-25T07:51:12.435Z,2.60
2018-01-25T07:52:17.948Z,2.70
2018-01-25T07:53:23.461Z,2.90
2018-01-25T07:54:28.972Z,3.00
2018-01-25T07:55:34.486Z,3.20
2018-01-25T07:56:39.990Z,3.40
2018-01-25T07:57:45.503Z,3.20
2018-01-25T07:58:51.033Z,3.60
2018-01-25T07:59:56.527Z,3.50
2018-01-25T08:01:02.031Z,3.70
2018-01-25T08:02:07.595Z,3.50
2018-01-25T08:03:13.060Z,3.70
2018-01-25T08:04:18.571Z,3.20
2018-01-25T08:05:24.080Z,3.60
2018-01-25T08:06:29.597Z,3.80
2018-01-25T08:07:35.102Z,3.80
2018-01-25T08:08:40.607Z,4.20
2018-01-25T08:09:46.120Z,3.80
2018-01-25T08:27:16.034Z,1.90
2018-01-25T08:28:21.503Z,2.70
2018-01-25T08:30:21.056Z,4.20
2018-01-25T08:31:26.551Z,4.10
2018-01-25T08:32:32.062Z,4.40
2018-01-25T08:33:37.574Z,4.40
2018-01-25T08:34:43.079Z,4.40
2018-01-25T08:35:48.596Z,4.40
2018-01-25T08:36:54.178Z,4.90
2018-01-25T08:37:59.609Z,5.20
2018-01-25T08:39:05.160Z,5.10
2018-01-25T08:40:10.657Z,5.50
2018-01-25T08:41:16.149Z,5.50
2018-01-25T08:42:21.648Z,5.40
2018-01-25T08:43:27.168Z,5.30
2018-01-25T08:44:32.670Z,6.10
2018-01-25T08:45:38.183Z,7.10
2018-01-25T08:46:43.691Z,6.70
2018-01-25T08:47:49.204Z,8.10
2018-01-25T08:48:54.725Z,7.40
2018-01-25T08:50:00.222Z,7.00
2018-01-25T08:51:05.740Z,7.00
2018-01-25T08:52:11.244Z,7.10
2018-01-25T08:53:16.752Z,7.00
2018-01-25T08:54:22.274Z,6.80
2018-01-25T08:55:27.779Z,7.00
2018-01-25T08:56:33.294Z,7.10
2018-01-25T08:57:38.801Z,7.20
2018-01-25T08:58:44.312Z,7.40
2018-01-25T08:59:49.821Z,7.20
2018-01-25T09:00:55.344Z,7.10
2018-01-25T09:02:00.836Z,7.70
2018-01-25T09:03:06.361Z,7.30
2018-01-25T09:04:11.861Z,7.30
2018-01-25T09:05:17.366Z,7.50
2018-01-25T09:06:22.876Z,7.20
2018-01-25T09:07:28.412Z,7.40
2018-01-25T09:08:33.896Z,7.80
2018-01-25T09:09:39.410Z,7.70
2018-01-25T09:10:44.916Z,7.60
2018-01-25T09:11:50.439Z,8.10
2018-01-25T09:12:55.957Z,7.80
2018-01-25T09:14:01.534Z,7.70
2018-01-25T09:15:07.004Z,8.00
2018-01-25T09:16:12.471Z,8.30
2018-01-25T09:17:17.981Z,8.10
2018-01-25T09:18:23.496Z,8.20
2018-01-25T09:19:29.002Z,7.90
2018-01-25T09:20:34.510Z,8.40
2018-01-25T09:21:40.023Z,8.10
2018-01-25T09:22:45.632Z,7.80
2018-01-25T09:23:51.051Z,7.10
2018-01-25T09:24:56.564Z,7.50
2018-01-25T09:26:02.182Z,7.50
2018-01-25T09:27:07.583Z,7.70
2018-01-25T09:28:13.087Z,7.20
2018-01-25T09:29:18.602Z,6.80
2018-01-25T09:30:24.110Z,7.30
2018-01-25T09:31:29.622Z,7.70
2018-01-25T09:32:35.132Z,6.90
2018-01-25T09:33:40.641Z,7.10
2018-01-25T09:34:46.159Z,6.90
2018-01-25T09:35:51.663Z,7.40
2018-01-25T09:36:57.183Z,7.10
2018-01-25T09:38:02.695Z,6.80
2018-01-25T09:39:08.201Z,7.20
2018-01-25T09:40:13.710Z,6.60
2018-01-25T09:41:19.222Z,6.90
2018-01-25T09:42:24.730Z,6.40
2018-01-25T09:43:30.240Z,6.60
2018-01-25T09:44:35.753Z,6.30
2018-01-25T09:45:41.262Z,6.50
2018-01-25T09:46:46.776Z,6.50
2018-01-25T09:47:52.284Z,5.90
2018-01-25T09:48:57.802Z,6.20
2018-01-25T09:50:03.306Z,6.80
2018-01-25T09:51:08.820Z,6.70
2018-01-25T09:52:14.331Z,6.70
2018-01-25T09:53:19.836Z,6.50
2018-01-25T09:54:25.411Z,6.60
2018-01-25T09:55:30.944Z,6.80
2018-01-25T09:56:36.372Z,6.00
2018-01-25T09:57:41.904Z,6.30
2018-01-25T09:58:47.405Z,5.60
2018-01-25T09:59:52.906Z,6.10
2018-01-25T10:00:58.421Z,5.90
2018-01-25T10:02:03.926Z,6.30
2018-01-25T10:03:09.439Z,6.40
2018-01-25T10:04:14.951Z,6.20
2018-01-25T10:05:20.459Z,6.50
2018-01-25T10:06:25.973Z,6.50
2018-01-25T10:07:31.484Z,6.60
2018-01-25T10:08:36.992Z,6.30
2018-01-25T10:09:42.505Z,6.00
2018-01-25T10:10:48.023Z,6.20
2018-01-25T10:11:53.522Z,6.30
2018-01-25T10:12:59.032Z,6.30
2018-01-25T10:14:04.546Z,5.90
2018-01-25T10:15:10.057Z,6.60
2018-01-25T10:16:15.583Z,6.40
2018-01-25T10:17:21.083Z,6.10
2018-01-25T10:18:26.594Z,5.80
2018-01-25T10:19:32.099Z,5.80
2018-01-25T10:20:37.620Z,5.90
2018-01-25T10:21:43.125Z,5.80
2018-01-25T10:22:48.634Z,5.80
2018-01-25T10:23:54.183Z,5.80
2018-01-25T10:24:59.671Z,6.00
2018-01-25T10:26:05.172Z,5.70
2018-01-25T10:27:10.679Z,5.40
2018-01-25T10:28:16.187Z,5.40
2018-01-25T10:29:21.703Z,5.00
2018-01-25T10:30:27.269Z,5.10
2018-01-25T10:31:32.720Z,5.20
2018-01-25T10:32:38.240Z,4.80
2018-01-25T10:33:43.752Z,4.70
2018-01-25T10:34:49.262Z,4.50
2018-01-25T10:35:54.873Z,4.30
2018-01-25T10:37:00.282Z,4.80
2018-01-25T10:38:05.863Z,4.40
2018-01-25T10:39:11.312Z,4.40
2018-01-25T10:40:16.823Z,4.50
2018-01-25T10:41:22.323Z,4.90
2018-01-25T10:42:27.840Z,4.20
2018-01-25T10:43:33.352Z,4.20
2018-01-25T10:44:38.856Z,4.30
2018-01-25T10:45:44.376Z,4.30
2018-01-25T10:46:49.890Z,5.00
2018-01-25T10:47:55.392Z,4.20
2018-01-25T10:49:00.915Z,4.40
2018-01-25T10:50:06.414Z,3.80
2018-01-25T10:51:11.930Z,3.70
2018-01-25T10:52:17.459Z,3.60
2018-01-25T10:53:22.954Z,4.00
2018-01-25T10:54:28.460Z,3.60
2018-01-25T10:55:33.971Z,3.70
2018-01-25T10:56:39.482Z,3.90
2018-01-25T10:57:45.007Z,3.70
2018-01-25T10:58:50.507Z,3.00
2018-01-25T10:59:56.020Z,3.90
2018-01-25T11:01:01.531Z,3.60
2018-01-25T11:02:07.049Z,3.80
2018-01-25T11:03:12.548Z,3.80
2018-01-25T11:04:18.061Z,3.80
2018-01-25T11:05:23.571Z,3.80
2018-01-25T11:06:29.086Z,3.60
2018-01-25T11:07:34.598Z,3.90
2018-01-25T11:08:40.203Z,3.40
2018-01-25T11:09:45.616Z,3.70
2018-01-25T11:10:51.149Z,3.40
2018-01-25T11:11:56.645Z,3.10
2018-01-25T11:13:02.156Z,3.70
2018-01-25T11:14:07.675Z,3.80
2018-01-25T11:15:13.176Z,3.50
2018-01-25T11:16:18.692Z,4.00
2018-01-25T11:17:24.206Z,3.50
2018-01-25T11:18:29.714Z,3.90
2018-01-25T11:19:35.221Z,3.10
2018-01-25T11:20:40.741Z,3.40
2018-01-25T11:21:46.250Z,3.40
2018-01-25T11:22:51.754Z,3.20
2018-01-25T11:23:57.300Z,3.20
2018-01-25T11:25:02.782Z,2.90
2018-01-25T11:26:08.293Z,3.30
2018-01-25T11:27:13.809Z,3.30
2018-01-25T11:28:19.314Z,3.40
2018-01-25T11:29:24.833Z,2.90
2018-01-25T11:30:30.348Z,3.10
2018-01-25T11:31:35.853Z,3.30
2018-01-25T11:32:41.362Z,3.30
2018-01-25T11:33:46.873Z,3.20
2018-01-25T11:34:52.388Z,3.30
2018-01-25T11:35:57.902Z,2.90
2018-01-25T11:37:03.414Z,3.30
2018-01-25T11:38:08.938Z,3.30
2018-01-25T11:39:14.437Z,2.90
2018-01-25T11:40:19.963Z,3.20
2018-01-25T11:41:25.454Z,3.30
2018-01-25T11:42:30.971Z,3.40
2018-01-25T11:43:36.481Z,3.50
2018-01-25T11:44:41.989Z,3.70
2018-01-25T11:45:47.565Z,3.30
2018-01-25T11:46:53.012Z,3.40
2018-01-25T11:47:58.520Z,3.20
2018-01-25T11:49:04.076Z,3.50
2018-01-25T11:50:09.552Z,3.30
2018-01-25T11:51:15.058Z,3.30
2018-01-25T11:52:20.571Z,3.40
2018-01-25T11:53:26.083Z,3.30
2018-01-25T11:54:31.595Z,3.50
2018-01-25T11:55:37.108Z,3.40
2018-01-25T11:56:42.619Z,3.20
2018-01-25T11:57:48.131Z,3.50
2018-01-25T11:58:53.646Z,3.30
2018-01-25T11:59:59.153Z,3.10
2018-01-25T12:01:04.720Z,2.90
2018-01-25T12:02:10.181Z,3.40
2018-01-25T12:03:15.701Z,3.50
2018-01-25T12:04:21.208Z,3.20
2018-01-25T12:05:26.731Z,3.30
2018-01-25T12:06:32.228Z,3.40
2018-01-25T12:07:37.739Z,3.60
2018-01-25T12:08:43.265Z,3.10
2018-01-25T12:09:48.758Z,3.10
2018-01-25T12:10:54.273Z,3.30
2018-01-25T12:11:59.794Z,2.80
2018-01-25T12:13:05.305Z,3.20
2018-01-25T12:14:10.807Z,3.30
2018-01-25T12:15:16.318Z,3.50
2018-01-25T12:16:21.835Z,3.50
2018-01-25T12:17:27.342Z,3.70
2018-01-25T12:18:32.865Z,3.20
2018-01-25T12:19:38.369Z,3.10
2018-01-25T12:20:43.879Z,3.60
2018-01-25T12:21:49.412Z,3.30
2018-01-25T12:22:54.902Z,3.40
2018-01-25T12:24:00.470Z,3.40
2018-01-25T12:25:05.929Z,3.40
2018-01-25T12:26:11.447Z,3.40
2018-01-25T12:27:16.997Z,3.20
2018-01-25T12:28:22.469Z,3.10
2018-01-25T12:29:27.982Z,3.30
2018-01-25T12:30:33.490Z,3.40
2018-01-25T12:31:39.005Z,2.70
2018-01-25T12:32:44.511Z,3.70
2018-01-25T12:33:50.025Z,3.20
2018-01-25T12:34:55.542Z,3.30
2018-01-25T12:36:01.059Z,3.20
2018-01-25T12:37:06.565Z,3.30
2018-01-25T12:38:12.079Z,3.10
2018-01-25T12:39:17.590Z,3.60
2018-01-25T12:40:23.097Z,3.30
2018-01-25T12:41:28.642Z,3.60
2018-01-25T12:42:34.127Z,3.20
2018-01-25T12:43:39.634Z,3.40
2018-01-25T12:44:45.157Z,3.20
2018-01-25T12:45:50.656Z,3.20
2018-01-25T12:46:56.168Z,3.00
2018-01-25T12:48:01.681Z,3.30
2018-01-25T12:49:07.201Z,3.20
2018-01-25T12:50:12.705Z,3.60
2018-01-25T12:51:18.217Z,3.20
2018-01-25T12:52:24.069Z,3.80
2018-01-25T12:53:29.243Z,3.50
2018-01-25T12:54:34.760Z,3.50
2018-01-25T12:55:40.267Z,3.30
2018-01-25T12:56:45.781Z,3.20
2018-01-25T12:57:51.289Z,3.50
2018-01-25T12:58:56.804Z,3.40
2018-01-25T13:00:02.313Z,3.30
2018-01-25T13:01:07.837Z,3.60
2018-01-25T13:02:13.346Z,3.40
2018-01-25T13:03:18.850Z,3.30
2018-01-25T13:04:24.363Z,3.60
2018-01-25T13:05:29.875Z,3.50
2018-01-25T13:06:35.393Z,3.50
2018-01-25T13:07:40.929Z,3.10
2018-01-25T13:08:46.412Z,3.50
2018-01-25T13:09:51.943Z,3.80
2018-01-25T13:10:57.438Z,3.70
2018-01-25T13:12:02.946Z,3.10
2018-01-25T13:13:08.464Z,3.40
2018-01-25T13:14:13.984Z,3.30
2018-01-25T13:15:19.478Z,3.30
2018-01-25T13:16:25.006Z,3.30
2018-01-25T13:17:30.523Z,3.00
2018-01-25T13:18:36.021Z,3.30
2018-01-25T13:19:41.531Z,3.00
2018-01-25T13:20:47.043Z,3.10
2018-01-25T13:21:52.562Z,3.80
2018-01-25T13:22:58.071Z,3.10
2018-01-25T13:24:03.579Z,3.10
2018-01-25T13:25:09.090Z,3.40
2018-01-25T13:26:14.602Z,3.20
2018-01-25T13:27:20.135Z,3.50
2018-01-25T13:28:25.626Z,3.40
2018-01-25T13:29:31.146Z,3.80
2018-01-25T13:30:36.651Z,3.10
2018-01-25T13:31:42.162Z,3.60
2018-01-25T13:32:47.684Z,2.90
2018-01-25T13:33:53.188Z,3.50
2018-01-25T13:34:58.701Z,3.00
2018-01-25T13:36:04.213Z,3.00
2018-01-25T13:37:09.733Z,3.20
2018-01-25T13:38:15.239Z,3.40
2018-01-25T13:39:20.760Z,3.00
2018-01-25T13:40:26.266Z,3.40
2018-01-25T13:41:31.773Z,2.90
2018-01-25T13:42:37.286Z,3.40
2018-01-25T13:43:42.799Z,2.90
2018-01-25T13:44:48.326Z,2.80
2018-01-25T13:45:53.820Z,3.10
2018-01-25T13:46:59.331Z,3.30
2018-01-25T13:48:04.851Z,3.50
2018-01-25T13:49:10.359Z,3.20
2018-01-25T13:50:15.868Z,3.00
2018-01-25T13:51:21.392Z,3.10
2018-01-25T13:52:26.893Z,3.20
2018-01-25T13:53:32.409Z,3.40
2018-01-25T13:54:37.920Z,3.40
2018-01-25T13:55:43.430Z,3.30
2018-01-25T13:56:48.944Z,3.10
2018-01-25T13:57:54.469Z,3.10
2018-01-25T13:58:59.966Z,3.00
2018-01-25T14:00:05.484Z,3.70
2018-01-25T14:01:11.034Z,3.30
2018-01-25T14:02:16.509Z,3.10
2018-01-25T14:03:22.018Z,3.10
2018-01-25T14:04:27.532Z,3.50
2018-01-25T14:05:33.042Z,3.30
2018-01-25T14:06:38.549Z,3.20
2018-01-25T14:07:44.062Z,3.00
2018-01-25T14:08:49.575Z,3.10
2018-01-25T14:09:55.094Z,3.20
2018-01-25T14:11:00.604Z,3.10
2018-01-25T14:12:06.118Z,3.30
2018-01-25T14:13:11.625Z,3.10
2018-01-25T14:14:17.140Z,3.10
2018-01-25T14:15:22.654Z,3.20
2018-01-25T14:16:28.163Z,3.20
2018-01-25T14:17:33.674Z,2.90
2018-01-25T14:18:39.195Z,3.10
2018-01-25T14:19:44.703Z,3.40
2018-01-25T14:20:50.224Z,3.30
2018-01-25T14:21:55.723Z,2.60
2018-01-25T14:23:01.234Z,2.90
2018-01-25T14:24:06.749Z,3.10
2018-01-25T14:25:12.269Z,3.00
2018-01-25T14:26:17.771Z,3.10
2018-01-25T14:27:23.291Z,3.50
2018-01-25T14:28:28.802Z,3.00
2018-01-25T14:29:34.312Z,3.10
2018-01-25T14:30:39.831Z,3.20
2018-01-25T14:31:45.385Z,2.90
2018-01-25T14:32:50.849Z,3.10
2018-01-25T14:33:56.359Z,3.30
2018-01-25T14:35:01.870Z,3.00
2018-01-25T14:36:07.396Z,3.10
2018-01-25T14:37:12.904Z,3.20
2018-01-25T14:38:18.412Z,3.30
2018-01-25T14:39:23.929Z,3.30
2018-01-25T14:40:29.437Z,3.60
2018-01-25T14:41:34.952Z,3.00
2018-01-25T14:42:40.461Z,3.40
2018-01-25T14:43:45.972Z,3.00
2018-01-25T14:44:51.483Z,2.90
2018-01-25T14:45:56.994Z,3.30
2018-01-25T14:47:02.510Z,3.30
2018-01-25T14:48:08.015Z,3.40
2018-01-25T14:49:13.532Z,3.20